Main page
METAR-TAF:

METAR-TAF

Airports :

Riga International Airport

Riga, Latvia

latitude: 56-55N, longitude: 023-58E, elevation: 10 m

Current weather observation

The report was made 23 minutes ago, at 18:20 UTC
Wind 7 kt from the East, varying between East/Northeast and East/Southeast
Temperature 2°C
Humidity 75%
Pressure 1035 hPa
Visibility 10 km or more
Overcast at a height of 1800 ft

METAR: EVRA 191820Z 09007KT 060V120 9999 OVC018 02/M02 Q1035 R36/090095 NOSIG

Time: 20:43 (18:43 UTC)

Forecast

The report was made 1 hour and 43 minutes ago, at 17:00 UTC
Forecast valid from 19 at 18 UTC to 20 at 18 UTC
Wind 5 kt from the East/Northeast
Visibility 10 km or more
Broken clouds at a height of 2000 ft

TAF: EVRA 191700Z 1918/2018 06005KT 9999 BKN020

Weather observations and forecasts of more than 4000 airports (METAR and TAF reports).

The available stations are represented by yellow and red dots on the map.

Hover mouse over dot to see the name of the station.

Then click to see weather observations and forecasts.

To change the map : click on the green buttons with a black cross to zoom in, on the green button with a dash to zoom out, or on the green arrows for adjacent maps.


METAR-TAF: